• Join FlightAware (Why Join?)
  • Login
  • US Flag 
05:50AM EDT


 

Airport Tracker/Info


-or-


 

Live Flight TrackerFlight Track Log ✈ ZS-SNC ✈ 09-Apr-2013 ✈ EGLL / LHR - FAOR / JNB

Flight Track Log - Related Links

Times and Time Zones

All times are in EDT time to prevent confusion due to time zone crossing. See the ZS-SNC flight status page for this flight to view local times or setup timezone preferences in your user account.

Time Position Orientation Groundspeed Altitude Reporting Facility
EDT Latitude Longitude Course Direction KTS MPH feet Rate Location/Type
02:29PM 51.4630 -0.4060 104° East 165 190 1,400  Level FlightAware
02:29PM 51.4594 -0.3945 117° Southeast 165 190 1,700 -2,160 Climbing FlightAware ADS-B
02:29PM 51.4514 -0.3769 117° Southeast 178 205 500 1,140 Descending FlightAware UK
02:29PM 51.4414 -0.3667 117° Southeast 172 198 2,300 3,900 Climbing FlightAware ADS-B
02:30PM 51.4261 -0.3610 167° South 193 222 2,600 780 Climbing FlightAware ADS-B
02:30PM 51.4216 -0.3611 180° South 208 239 2,600 600 Level FlightAware ADS-B
02:30PM 51.4068 -0.3651 190° South 224 258 2,800 960 Climbing FlightAware ADS-B
02:30PM 51.3972 -0.3701 198° South 233 268 3,000 1,260 Climbing FlightAware ADS-B
02:30PM 51.3921 -0.3732 201° Southwest 241 277 3,100 660 Climbing FlightAware ADS-B
02:30PM 51.3786 -0.3828 204° Southwest 255 293 3,200 960 Climbing FlightAware ADS-B
02:31PM 51.3658 -0.3927 206° Southwest 265 305 3,500 2,220 Climbing FlightAware ADS-B
02:31PM 51.3487 -0.4064 207° Southwest 267 307 4,200 2,460 Climbing FlightAware ADS-B
02:31PM 51.3321 -0.4199 207° Southwest 266 306 4,800 2,460 Climbing FlightAware ADS-B
02:31PM 51.3151 -0.4333 206° Southwest 267 307 5,500 2,280 Climbing FlightAware ADS-B
02:32PM 51.2984 -0.4458 205° Southwest 268 308 6,000 1,800 Climbing FlightAware ADS-B
02:32PM 51.2812 -0.4584 205° Southwest 271 312 6,400 960 Climbing FlightAware ADS-B
02:32PM 51.2630 -0.4718 205° Southwest 272 313 6,500 360 Climbing FlightAware ADS-B
02:32PM 51.2457 -0.4844 205° Southwest 271 312 6,600 1,260 Climbing FlightAware ADS-B
02:33PM 51.2257 -0.4992 205° Southwest 270 311 7,200 2,040 Climbing FlightAware ADS-B
02:33PM 51.2087 -0.5117 205° Southwest 272 313 7,700 2,100 Climbing FlightAware ADS-B
02:33PM 51.1910 -0.5247 205° Southwest 274 315 8,300 2,220 Climbing FlightAware ADS-B
02:33PM 51.1776 -0.5341 204° Southwest 277 319 8,700 1,980 Climbing FlightAware ADS-B
02:33PM 51.1726 -0.5365 197° South 280 322 8,800 1,500 Climbing FlightAware ADS-B
02:33PM 51.1680 -0.5380 191° South 282 325 8,900 1,320 Climbing FlightAware ADS-B
02:34PM 51.1619 -0.5385 183° South 283 326 9,000 1,620 Climbing FlightAware ADS-B
02:34PM 51.1542 -0.5367 172° South 286 329 9,200 1,620 Climbing FlightAware ADS-B
02:34PM 51.1469 -0.5325 161° South 289 333 9,300 1,680 Climbing FlightAware ADS-B
02:34PM 51.1367 -0.5230 150° Southeast 289 333 9,600 2,280 Climbing FlightAware ADS-B
02:34PM 51.1268 -0.5130 148° Southeast 287 330 10,000 -720 Climbing FlightAware ADS-B
02:34PM 51.0983 -0.4855 148° Southeast 294 338 9,200 1,500 Descending FlightAware UK
02:35PM 51.0902 -0.4784 148° Southeast 299 344 10,800 3,720 Climbing FlightAware ADS-B
02:35PM 51.0533 -0.4439 150° Southeast 318 366 11,500 -660 Climbing FlightAware ADS-B
02:35PM 51.0306 -0.4228 150° Southeast 322 371 10,300 1,200 Descending FlightAware UK
02:36PM 51.0136 -0.4083 150° Southeast 334 384 12,100 1,140 Climbing FlightAware ADS-B
02:36PM 50.9814 -0.3796 150° Southeast 342 394 11,000 1,320 Descending FlightAware UK
02:36PM 50.9701 -0.3698 150° Southeast 351 404 12,800 1,500 Climbing FlightAware ADS-B
02:36PM 50.9474 -0.3492 150° Southeast 350 403 11,600 1,140 Descending FlightAware UK
02:37PM 50.9257 -0.3297 150° Southeast 365 420 13,400 1,320 Climbing FlightAware ADS-B
02:37PM 50.8948 -0.3012 150° Southeast 366 421 12,400 1,320 Descending FlightAware UK
02:37PM 50.8801 -0.2880 150° Southeast 376 433 14,100 960 Climbing FlightAware ADS-B
02:37PM 50.8492 -0.2596 150° Southeast 378 435 12,900 900 Descending FlightAware UK
02:38PM 50.8303 -0.2431 150° Southeast 394 453 14,600 960 Climbing FlightAware ADS-B
02:38PM 50.8010 -0.2171 150° Southeast 392 451 13,400 1,320 Descending FlightAware UK
02:38PM 50.7810 -0.1997 150° Southeast 404 465 15,300 1,560 Climbing FlightAware ADS-B
02:38PM 50.7521 -0.1738 150° Southeast 400 460 14,200 1,800 Descending FlightAware UK
02:39PM 50.7271 -0.1513 150° Southeast 405 466 16,300 3,900 Climbing FlightAware ADS-B
02:39PM 50.6771 -0.1060 150° Southeast 409 471 17,200 1,560 Climbing FlightAware ADS-B
02:40PM 50.6236 -0.0576 150° Southeast 414 476 18,000 -240 Climbing FlightAware ADS-B
02:40PM 50.5844 -0.0219 150° Southeast 410 472 17,000 1,380 Descending FlightAware UK
02:40PM 50.5727 -0.0116 150° Southeast 418 481 18,700 1,380 Climbing FlightAware ADS-B
02:41PM 50.5338 0.0237 150° Southeast 412 474 17,700 1,500 Descending FlightAware UK
02:41PM 50.5198 0.0357 150° Southeast 422 486 19,500 1,200 Climbing FlightAware ADS-B
02:41PM 50.4931 0.0600 150° Southeast 416 479 18,200 1,200 Descending FlightAware UK
02:42PM 50.4435 0.1034 150° Southeast 431 496 20,400 2,460 Climbing FlightAware ADS-B
02:42PM 50.3570 0.1810 150° Southeast 438 504 21,500 -120 Climbing FlightAware
02:43PM 50.3258 0.2087 150° Southeast 430 495 20,300 -1,440 Descending FlightAware UK
02:43PM 50.2938 0.2370 150° Southeast 432 497 20,700 4,980 Climbing FlightAware UK
02:43PM 50.2860 0.2430 150° Southeast 442 509 22,300 1,200 Climbing FlightAware
02:43PM 50.2400 0.2840 150° Southeast 434 499 21,300 -900 Descending FlightAware UK
02:44PM 50.2077 0.3122 151° Southeast 436 502 21,700 5,400 Climbing FlightAware UK
02:44PM 50.2080 0.3120 151° Southeast 446 513 23,200 960 Climbing FlightAware
02:44PM 50.1750 0.3409 151° Southeast 440 506 22,000 1,200 Descending FlightAware UK
02:44PM 50.1350 0.3760 151° Southeast 450 518 24,000 1,080 Climbing FlightAware
02:45PM 50.0881 0.4174 151° Southeast 444 511 22,900 1,020 Descending FlightAware UK
02:45PM 50.0620 0.4400 151° Southeast 453 521 24,700 960 Climbing FlightAware
02:45PM 50.0225 0.4744 151° Southeast 448 516 23,500 -1,020 Descending FlightAware UK
02:46PM 49.9779 0.5129 151° Southeast 452 520 24,000 4,560 Climbing FlightAware UK
02:46PM 49.9780 0.5120 151° Southeast 460 529 25,500 960 Climbing FlightAware
02:46PM 49.9328 0.5522 151° Southeast 456 525 24,400 1,200 Descending FlightAware UK
02:47PM 49.9040 0.5780 151° Southeast 463 533 26,300 1,380 Climbing FlightAware
02:47PM 49.8555 0.6223 151° Southeast 458 527 25,400 -900 Descending FlightAware UK
02:47PM 49.8218 0.6532 149° Southeast 460 529 25,700 5,400 Climbing FlightAware UK
02:47PM 49.8220 0.6530 149° Southeast 466 536 27,300 1,320 Climbing FlightAware
02:48PM 49.7884 0.6837 149° Southeast 462 532 26,100 1,020 Descending FlightAware UK
02:48PM 49.7470 0.7210 149° Southeast 472 543 28,000 840 Climbing FlightAware
02:48PM 49.7095 0.7554 149° Southeast 466 536 26,700 -1,380 Descending FlightAware UK
02:49PM 49.6751 0.7869 149° Southeast 470 541 27,200 5,100 Climbing FlightAware UK
02:49PM 49.6630 0.7970 149° Southeast 471 542 29,100 1,800 Climbing FlightAware
02:49PM 49.6190 0.8379 149° Southeast 458 527 28,100 1,200 Descending FlightAware UK
02:49PM 49.5850 0.8680 149° Southeast 476 548 29,900 780 Climbing FlightAware
02:50PM 49.5505 0.8990 149° Southeast 462 532 28,600 -1,920 Descending FlightAware UK
02:50PM 49.5156 0.9296 150° Southeast 462 532 28,800 4,020 Climbing FlightAware UK
02:50PM 49.5020 0.9410 150° Southeast 486 559 30,500 960 Climbing FlightAware
02:50PM 49.4569 0.9822 150° Southeast 464 534 29,300 -1,440 Descending FlightAware UK
02:51PM 49.4215 1.0141 150° Southeast 466 536 29,600 5,400 Climbing FlightAware UK
02:51PM 49.4280 1.0070 150° Southeast 487 560 31,100 1,740 Climbing FlightAware
02:51PM 49.3865 1.0457 150° Southeast 466 536 30,100 -1,080 Descending FlightAware UK
02:51PM 49.3507 1.0774 150° Southeast 460 529 30,500 4,200 Climbing FlightAware UK
02:52PM 49.3340 1.0910 150° Southeast 492 566 32,200 780 Climbing FlightAware
02:52PM 49.2918 1.1297 150° Southeast 458 527 30,900 -1,800 Descending FlightAware UK
02:52PM 49.2560 1.1611 150° Southeast 464 534 31,100 5,100 Climbing FlightAware UK
02:52PM 49.2530 1.1630 150° Southeast 500 575 32,700 1,320 Climbing FlightAware
02:52PM 49.2201 1.1929 150° Southeast 464 534 31,500 1,200 Descending FlightAware UK
02:53PM 49.1750 1.2330 150° Southeast 499 574 33,500 1,080 Climbing FlightAware
02:53PM 49.1234 1.2794 150° Southeast 458 527 32,400 -1,320 Descending FlightAware UK
02:54PM 49.0877 1.3106 150° Southeast 460 529 32,600 4,620 Climbing FlightAware UK
02:54PM 49.0810 1.3150 150° Southeast 503 579 34,100 720 Climbing FlightAware
02:54PM 49.0397 1.3523 150° Southeast 464 534 32,900 -1,440 Descending FlightAware UK
02:54PM 49.0028 1.3845 150° Southeast 468 539 33,200 5,400 Climbing FlightAware UK
02:54PM 49.0050 1.3810 150° Southeast 504 580 34,700 660 Climbing FlightAware
02:55PM 48.9664 1.4163 150° Southeast 468 539 33,400 -2,340 Descending FlightAware UK
02:55PM 48.9301 1.4481 150° Southeast 468 539 33,400 3,960 Level FlightAware UK
02:55PM 48.9240 1.4530 150° Southeast 504 580 35,000 120 Climbing FlightAware
02:55PM 48.8574 1.5121 150° Southeast 472 543 33,500  Descending FlightAware UK
02:56PM 48.8350 1.5310 150° Southeast 510 587 35,000  Climbing FlightAware
02:56PM 48.7969 1.5666 150° Southeast 470 541 33,500 -2,760 Descending FlightAware UK
02:56PM 48.7600 1.5987 150° Southeast 470 541 33,500 3,600 Level FlightAware UK
02:56PM 48.7550 1.6010 150° Southeast 510 587 35,000  Climbing FlightAware
02:57PM 48.6981 1.6523 150° Southeast 472 543 33,500  Descending FlightAware UK
02:57PM 48.6560 1.6870 150° Southeast 514 592 35,000  Climbing FlightAware
02:57PM 48.6112 1.7266 150° Southeast 474 545 33,500 -2,400 Descending FlightAware UK
02:58PM 48.5738 1.7584 151° Southeast 472 543 33,500 4,500 Level FlightAware UK
02:58PM 48.5740 1.7570 151° Southeast 514 592 35,000  Climbing FlightAware
02:58PM 48.5363 1.7901 151° Southeast 472 543 33,500 -2,700 Descending FlightAware UK
02:58PM 48.4990 1.8220 151° Southeast 472 543 33,500 3,060 Level FlightAware UK
02:59PM 48.4810 1.8370 151° Southeast 516 594 35,000  Climbing FlightAware
02:59PM 48.4366 1.8748 151° Southeast 472 543 33,500 -2,460 Descending FlightAware UK
02:59PM 48.3988 1.9069 151° Southeast 472 543 33,500 4,260 Level FlightAware UK
02:59PM 48.3980 1.9080 151° Southeast 514 592 35,000 2,040 Climbing FlightAware
03:00PM 48.3110 1.9620 158° South 500 575 35,000  Level FlightAware
03:01PM 48.2110 2.0000 166° South 504 580 35,000  Level FlightAware
03:01PM 48.1250 2.0330 166° South 507 583 35,000  Level FlightAware
03:02PM 48.0300 2.0690 166° South 510 587 35,000  Level FlightAware
03:03PM 47.9280 2.1080 166° South 508 585 35,000  Level FlightAware
03:03PM 47.8370 2.1430 166° South 508 585 35,000  Level FlightAware
03:04PM 47.7300 2.1840 166° South 508 585 35,000  Level FlightAware
03:05PM 47.6420 2.2170 166° South 506 582 35,000  Level FlightAware
03:05PM 47.5530 2.2500 166° South 505 581 35,000  Level FlightAware
03:06PM 47.4540 2.2880 165° South 505 581 35,000  Level FlightAware
03:07PM 47.3600 2.3230 166° South 506 582 35,000  Level FlightAware
03:08PM 47.2550 2.3620 166° South 504 580 35,000  Level FlightAware
03:08PM 47.1650 2.3950 166° South 503 579 35,000  Level FlightAware
03:09PM 47.0660 2.4320 166° South 503 579 35,000  Level FlightAware
03:10PM 46.9760 2.4650 166° South 505 581 35,000  Level FlightAware
03:10PM 46.9070 2.4900 166° South 505 581 35,000  Level FlightAware
03:11PM 46.8280 2.5190 166° South 505 581 35,000  Level FlightAware
03:11PM 46.7380 2.5520 166° South 504 580 35,000  Level FlightAware
03:12PM 46.6400 2.5870 166° South 505 581 35,000  Level FlightAware
03:13PM 46.5470 2.6270 164° South 512 589 35,000  Level FlightAware
03:14PM 46.4570 2.6720 161° South 515 593 35,000  Level FlightAware
03:14PM 46.3690 2.7150 161° South 516 594 35,000  Level FlightAware
03:15PM 46.2600 2.7660 162° South 514 592 35,000  Level FlightAware
03:16PM 46.1730 2.8080 162° South 509 586 35,000  Level FlightAware
03:16PM 46.0810 2.8510 162° South 511 588 35,000  Level FlightAware
03:17PM 45.9840 2.8960 162° South 511 588 35,000  Level FlightAware
03:18PM 45.8940 2.9390 162° South 511 588 35,000  Level FlightAware
03:18PM 45.8060 2.9800 162° South 510 587 35,000  Level FlightAware
03:19PM 45.7100 3.0240 162° South 506 582 35,000  Level FlightAware
03:20PM 45.6190 3.0670 162° South 506 582 35,000  Level FlightAware
03:20PM 45.5340 3.1060 162° South 507 583 35,000  Level FlightAware
03:21PM 45.4000 3.1690 162° South 507 583 35,000  Level FlightAware
03:22PM 45.3040 3.2110 163° South 503 579 35,000  Level FlightAware
03:23PM 45.1980 3.2590 162° South 514 592 35,000  Level FlightAware
03:24PM 45.1050 3.3010 162° South 508 585 35,000  Level FlightAware
03:24PM 45.0070 3.3460 162° South 505 581 35,000  Level FlightAware
03:25PM 44.9180 3.3860 162° South 504 580 35,000  Level FlightAware
03:26PM 44.8170 3.4310 162° South 506 582 35,000  Level FlightAware
03:26PM 44.7320 3.4690 162° South 506 582 35,000  Level FlightAware
03:27PM 44.6280 3.5160 162° South 501 577 35,000  Level FlightAware
03:28PM 44.5410 3.5540 163° South 502 578 35,000  Level FlightAware
03:28PM 44.4530 3.5930 162° South 499 574 35,000  Level FlightAware
03:29PM 44.3550 3.6370 162° South 497 572 35,000  Level FlightAware
03:30PM 44.2690 3.6740 163° South 496 571 35,000  Level FlightAware
03:30PM 44.1890 3.7140 160° South 498 573 35,000  Level FlightAware
03:31PM 44.0810 3.7690 160° South 498 573 35,000  Level FlightAware
03:32PM 43.9930 3.8120 161° South 500 575 35,000  Level FlightAware
03:33PM 43.9000 3.8580 160° South 499 574 35,000  Level FlightAware
03:33PM 43.8110 3.9020 160° South 503 579 35,000  Level FlightAware
03:34PM 43.7220 3.9460 160° South 508 585 35,000  Level FlightAware
03:35PM 43.6230 3.9950 160° South 505 581 35,000  Level FlightAware
03:35PM 43.5370 4.0370 161° South 501 577 35,000  Level FlightAware
03:36PM 43.4480 4.0800 161° South 499 574 35,000  Level FlightAware
03:37PM 43.3500 4.1270 161° South 498 573 35,000  Level FlightAware
03:38PM 43.2630 4.1690 161° South 499 574 35,000  Level FlightAware
03:38PM 43.1640 4.2170 161° South 497 572 35,000  Level FlightAware
03:39PM 43.0760 4.2600 160° South 498 573 35,000  Level FlightAware
03:40PM 42.9780 4.3060 161° South 500 575 35,000  Level FlightAware
03:40PM 42.9080 4.3400 160° South 503 579 35,000  Level FlightAware
03:41PM 42.8210 4.3810 161° South 502 578 35,000  Level FlightAware
03:42PM 42.6810 4.4490 160° South 501 577 35,000  Level FlightAware
03:43PM 42.5680 4.5020 161° South 498 573 35,000  Level FlightAware
03:44PM 42.4940 4.5390 160° South 498 573 35,000  Level FlightAware
03:44PM 42.3950 4.5820 162° South 498 573 35,000  Level FlightAware
03:45PM 42.2740 4.6400 160° South 498 573 35,000  Level FlightAware
03:46PM 42.1620 4.6910 161° South 496 571 35,000  Level FlightAware
03:47PM 42.0670 4.7350 161° South 496 571 35,000  Level FlightAware
03:47PM 41.9640 4.7830 161° South 494 568 35,000  Level FlightAware
03:48PM 41.8810 4.8210 161° South 494 568 35,000  Level FlightAware
03:49PM 41.7920 4.8620 161° South 495 570 35,000  Level FlightAware
03:50PM 41.6980 4.9050 161° South 498 573 35,000  Level FlightAware
03:50PM 41.6090 4.9460 161° South 499 574 35,000  Level FlightAware
03:51PM 41.5100 4.9910 161° South 499 574 35,000  Level FlightAware
03:52PM 41.4210 5.0310 161° South 503 579 35,000  Level FlightAware
03:52PM 41.3330 5.0710 161° South 504 580 35,000  Level FlightAware
03:53PM 41.2360 5.1150 161° South 499 574 35,000  Level FlightAware
03:54PM 41.1500 5.1540 161° South 499 574 35,000  Level FlightAware
03:54PM 41.0480 5.1990 162° South 499 574 35,000  Level FlightAware
03:55PM 40.9870 5.2270 161° South 491 565 35,000  Level FlightAware
03:56PM 40.8820 5.2730 162° South 489 563 35,000  Level FlightAware
03:57PM 40.7850 5.3170 161° South 495 570 35,000  Level FlightAware
03:57PM 40.6940 5.3570 162° South 489 563 35,000  Level FlightAware
03:58PM 40.5950 5.4010 161° South 491 565 35,000  Level FlightAware
03:59PM 40.5090 5.4390 161° South 495 570 35,000  Level FlightAware
03:59PM 40.4150 5.4800 162° South 502 578 35,000  Level FlightAware
04:00PM 40.3200 5.5220 161° South 499 574 35,000  Level FlightAware
04:01PM 40.2320 5.5600 162° South 496 571 35,000  Level FlightAware
04:01PM 40.1450 5.5980 162° South 497 572 35,000  Level FlightAware
04:02PM 40.0440 5.6420 162° South 492 566 35,000  Level FlightAware
04:03PM 39.9580 5.6790 162° South 491 565 35,000  Level FlightAware
04:03PM 39.8740 5.7160 161° South 492 566 35,000  Level FlightAware
04:04PM 39.7800 5.7560 162° South 492 566 35,000  Level FlightAware
04:05PM 39.6920 5.7940 162° South 493 567 35,000  Level FlightAware
04:06PM 39.5930 5.8370 161° South 493 567 35,000  Level FlightAware
04:06PM 39.5080 5.8730 162° South 489 563 35,000  Level FlightAware
04:07PM 39.4180 5.9110 162° South 496 571 35,000  Level FlightAware
04:08PM 39.3190 5.9530 162° South 491 565 35,000  Level FlightAware
04:08PM 39.2320 5.9780 167° South 482 555 35,000  Level FlightAware
04:09PM 39.1300 5.9930 173° South 484 557 35,000  Level FlightAware
04:10PM 39.0420 6.0070 173° South 485 558 35,000  Level FlightAware
04:10PM 38.9520 6.0210 173° South 488 562 35,000  Level FlightAware
04:11PM 38.8520 6.0370 173° South 485 558 35,000  Level FlightAware
04:12PM 38.7640 6.0510 173° South 483 556 35,000  Level FlightAware
04:13PM 38.6630 6.0670 173° South 482 555 35,000  Level FlightAware
04:13PM 38.5780 6.0810 173° South 485 558 35,000  Level FlightAware
04:14PM 38.4850 6.0950 173° South 487 560 35,000  Level FlightAware
04:15PM 38.3870 6.1110 173° South 483 556 35,000  Level FlightAware
04:15PM 38.3020 6.1240 173° South 483 556 35,000  Level FlightAware
04:16PM 38.2050 6.1410 172° South 470 541 35,000 -60 Level FlightAware
04:19PM 37.9257 6.2799 159° South  Level Estimated
04:20PM 37.8077 6.3383 159° South  Level Estimated
04:21PM 37.6896 6.3965 159° South  Level Estimated
04:22PM 37.5715 6.4545 159° South  Level Estimated
04:23PM 37.4534 6.5124 159° South  Level Estimated
04:24PM 37.3352 6.5700 159° South  Level Estimated
04:25PM 37.2170 6.6275 159° South  Level Estimated
04:26PM 37.0988 6.6848 159° South  Level Estimated
04:27PM 36.9805 6.7419 159° South  Level Estimated
04:28PM 36.8623 6.7988 159° South  Level Estimated
04:29PM 36.7440 6.8556 159° South  Level Estimated
04:30PM 36.6256 6.9122 159° South  Level Estimated
04:31PM 36.5073 6.9686 159° South  Level Estimated
04:32PM 36.3889 7.0248 159° South  Level Estimated
04:33PM 36.2705 7.0809 159° South  Level Estimated
04:34PM 36.1521 7.1368 159° South  Level Estimated
04:35PM 36.0336 7.1925 159° South  Level Estimated
04:36PM 35.9151 7.2481 159° South  Level Estimated
04:37PM 35.7966 7.3035 159° South  Level Estimated
04:38PM 35.6781 7.3587 159° South  Level Estimated
04:39PM 35.5595 7.4138 159° South  Level Estimated
04:40PM 35.4409 7.4686 159° South  Level Estimated
04:41PM 35.3223 7.5234 159° South  Level Estimated
04:42PM 35.2037 7.5780 159° South  Level Estimated
04:43PM 35.0850 7.6324 159° South  Level Estimated
04:44PM 34.9663 7.6866 159° South  Level Estimated
04:45PM 34.8476 7.7408 159° South  Level Estimated
04:46PM 34.7289 7.7947 160° South  Level Estimated
04:47PM 34.6101 7.8485 160° South  Level Estimated
04:48PM 34.4913 7.9021 160° South  Level Estimated
04:49PM 34.3726 7.9556 160° South  Level Estimated
04:50PM 34.2537 8.0090 160° South  Level Estimated
04:51PM 34.1349 8.0622 160° South  Level Estimated
04:52PM 34.0160 8.1152 160° South  Level Estimated
04:53PM 33.8971 8.1681 160° South  Level Estimated
04:54PM 33.7782 8.2208 160° South  Level Estimated
04:55PM 33.6592 8.2734 160° South  Level Estimated
04:56PM 33.5403 8.3259 160° South  Level Estimated
04:57PM 33.4213 8.3782 160° South  Level Estimated
04:58PM 33.3023 8.4304 160° South  Level Estimated
04:59PM 33.1833 8.4824 160° South  Level Estimated
05:00PM 33.0642 8.5343 160° South  Level Estimated
05:01PM 32.9451 8.5860 160° South  Level Estimated
05:02PM 32.8261 8.6376 160° South  Level Estimated
05:03PM 32.7070 8.6890 160° South  Level Estimated
05:04PM 32.5878 8.7404 160° South  Level Estimated
05:05PM 32.4687 8.7916 160° South  Level Estimated
05:06PM 32.3495 8.8426 160° South  Level Estimated
05:07PM 32.2303 8.8935 160° South  Level Estimated
05:08PM 32.1111 8.9443 160° South  Level Estimated
05:09PM 31.9918 8.9950 160° South  Level Estimated
05:10PM 31.8726 9.0455 160° South  Level Estimated
05:11PM 31.7533 9.0959 160° South  Level Estimated
05:12PM 31.6340 9.1461 160° South  Level Estimated
05:13PM 31.5147 9.1963 160° South  Level Estimated
05:14PM 31.3953 9.2463 160° South  Level Estimated
05:15PM 31.2760 9.2961 160° South  Level Estimated
05:16PM 31.1566 9.3459 160° South  Level Estimated
05:17PM 31.0372 9.3955 160° South  Level Estimated
05:18PM 30.9178 9.4450 160° South  Level Estimated
05:19PM 30.7984 9.4944 160° South  Level Estimated
05:20PM 30.6789 9.5437 160° South  Level Estimated
05:21PM 30.5595 9.5928 160° South  Level Estimated
05:22PM 30.4400 9.6418 161° South  Level Estimated
05:23PM 30.3205 9.6907 161° South  Level Estimated
05:24PM 30.2010 9.7395 161° South  Level Estimated
05:25PM 30.0814 9.7881 161° South  Level Estimated
05:26PM 29.9619 9.8367 161° South  Level Estimated
05:27PM 29.8423 9.8851 161° South  Level Estimated
05:28PM 29.7227 9.9334 161° South  Level Estimated
05:29PM 29.6031 9.9816 161° South  Level Estimated
05:30PM 29.4835 10.0297 161° South  Level Estimated
05:31PM 29.3638 10.0776 161° South  Level Estimated
05:32PM 29.2442 10.1255 161° South  Level Estimated
05:33PM 29.1245 10.1732 161° South  Level Estimated
05:34PM 29.0048 10.2208 161° South  Level Estimated
05:35PM 28.8851 10.2684 161° South  Level Estimated
05:36PM 28.7653 10.3158 161° South  Level Estimated
05:37PM 28.6456 10.3631 161° South  Level Estimated
05:38PM 28.5258 10.4103 161° South  Level Estimated
05:39PM 28.4060 10.4573 161° South  Level Estimated
05:40PM 28.2862 10.5043 161° South  Level Estimated
05:41PM 28.1664 10.5512 161° South  Level Estimated
05:42PM 28.0466 10.5980 161° South  Level Estimated
05:43PM 27.9268 10.6446 161° South  Level Estimated
05:44PM 27.8069 10.6912 161° South  Level Estimated
05:45PM 27.6870 10.7376 161° South  Level Estimated
05:46PM 27.5671 10.7840 161° South  Level Estimated
05:47PM 27.4472 10.8302 161° South  Level Estimated
05:48PM 27.3273 10.8764 161° South  Level Estimated
05:49PM 27.2074 10.9225 161° South  Level Estimated
05:50PM 27.0874 10.9684 161° South  Level Estimated
05:51PM 26.9675 11.0143 161° South  Level Estimated
05:52PM 26.8475 11.0600 161° South  Level Estimated
05:53PM 26.7275 11.1057 161° South  Level Estimated
05:54PM 26.6075 11.1513 161° South  Level Estimated
05:55PM 26.4875 11.1967 161° South  Level Estimated
05:56PM 26.3674 11.2421 161° South  Level Estimated
05:57PM 26.2474 11.2874 161° South  Level Estimated
05:58PM 26.1273 11.3326 161° South  Level Estimated
05:59PM 26.0072 11.3777 161° South  Level Estimated
06:00PM 25.8871 11.4227 161° South  Level Estimated
06:01PM 25.7670 11.4676 161° South  Level Estimated
06:02PM 25.6469 11.5124 161° South  Level Estimated
06:03PM 25.5268 11.5571 161° South  Level Estimated
06:04PM 25.4066 11.6018 161° South  Level Estimated
06:05PM 25.2864 11.6463 161° South  Level Estimated
06:06PM 25.1663 11.6908 161° South  Level Estimated
06:07PM 25.0461 11.7352 162° South  Level Estimated
06:08PM 24.9259 11.7795 162° South  Level Estimated
06:09PM 24.8057 11.8237 162° South  Level Estimated
06:10PM 24.6854 11.8678 162° South  Level Estimated
06:11PM 24.5652 11.9118 162° South  Level Estimated
06:12PM 24.4449 11.9558 162° South  Level Estimated
06:13PM 24.3247 11.9996 162° South  Level Estimated
06:14PM 24.2044 12.0434 162° South  Level Estimated
06:15PM 24.0841 12.0871 162° South  Level Estimated
06:16PM 23.9638 12.1307 162° South  Level Estimated
06:17PM 23.8435 12.1743 162° South  Level Estimated
06:18PM 23.7232 12.2177 162° South  Level Estimated
06:19PM 23.6028 12.2611 162° South  Level Estimated
06:20PM 23.4825 12.3044 162° South  Level Estimated
06:21PM 23.3621 12.3476 162° South  Level Estimated
06:22PM 23.2417 12.3907 162° South  Level Estimated
06:23PM 23.1213 12.4338 162° South  Level Estimated
06:24PM 23.0009 12.4768 162° South  Level Estimated
06:25PM 22.8805 12.5197 162° South  Level Estimated
06:26PM 22.7601 12.5625 162° South  Level Estimated
06:27PM 22.6397 12.6053 162° South  Level Estimated
06:28PM 22.5192 12.6480 162° South  Level Estimated
06:29PM 22.3988 12.6906 162° South  Level Estimated
06:30PM 22.2783 12.7331 162° South  Level Estimated
06:31PM 22.1578 12.7755 162° South  Level Estimated
06:32PM 22.0373 12.8179 162° South  Level Estimated
06:33PM 21.9168 12.8603 162° South  Level Estimated
06:34PM 21.7963 12.9025 162° South  Level Estimated
06:35PM 21.6758 12.9447 162° South  Level Estimated
06:36PM 21.5553 12.9868 162° South  Level Estimated
06:37PM 21.4347 13.0288 162° South  Level Estimated
06:38PM 21.3142 13.0708 162° South  Level Estimated
06:39PM 21.1936 13.1126 162° South  Level Estimated
06:40PM 21.0730 13.1545 162° South  Level Estimated
06:41PM 20.9524 13.1962 162° South  Level Estimated
06:42PM 20.8318 13.2379 162° South  Level Estimated
06:43PM 20.7112 13.2795 162° South  Level Estimated
06:44PM 20.5906 13.3211 162° South  Level Estimated
06:45PM 20.4700 13.3626 162° South  Level Estimated
06:46PM 20.3493 13.4040 162° South  Level Estimated
06:47PM 20.2287 13.4454 162° South  Level Estimated
06:48PM 20.1080 13.4867 162° South  Level Estimated
06:49PM 19.9874 13.5279 162° South  Level Estimated
06:50PM 19.8667 13.5691 162° South  Level Estimated
06:51PM 19.7460 13.6102 162° South  Level Estimated
06:52PM 19.6253 13.6512 162° South  Level Estimated
06:53PM 19.5046 13.6922 162° South  Level Estimated
06:54PM 19.3839 13.7331 162° South  Level Estimated
06:55PM 19.2632 13.7740 162° South  Level Estimated
06:56PM 19.1425 13.8148 162° South  Level Estimated
06:57PM 19.0217 13.8555 162° South  Level Estimated
06:58PM 18.9010 13.8962 162° South  Level Estimated
06:59PM 18.7802 13.9368 162° South  Level Estimated
07:00PM 18.6595 13.9774 162° South  Level Estimated
07:01PM 18.5387 14.0179 162° South  Level Estimated
07:02PM 18.4179 14.0584 162° South  Level Estimated
07:03PM 18.2971 14.0988 162° South  Level Estimated
07:04PM 18.1763 14.1391 162° South  Level Estimated
07:05PM 18.0555 14.1794 162° South  Level Estimated
07:06PM 17.9347 14.2196 162° South  Level Estimated
07:07PM 17.8139 14.2598 162° South  Level Estimated
07:08PM 17.6930 14.2999 162° South  Level Estimated
07:09PM 17.5722 14.3399 162° South  Level Estimated
07:10PM 17.4513 14.3800 162° South  Level Estimated
07:11PM 17.3305 14.4199 162° South  Level Estimated
07:12PM 17.2096 14.4598 162° South  Level Estimated
07:13PM 17.0888 14.4997 163° South  Level Estimated
07:14PM 16.9679 14.5395 163° South  Level Estimated
07:15PM 16.8470 14.5792 163° South  Level Estimated
07:16PM 16.7261 14.6189 163° South  Level Estimated
07:17PM 16.6052 14.6586 163° South  Level Estimated
07:18PM 16.4843 14.6982 163° South  Level Estimated
07:19PM 16.3634 14.7377 163° South  Level Estimated
07:20PM 16.2424 14.7772 163° South  Level Estimated
07:21PM 16.1215 14.8167 163° South  Level Estimated
07:22PM 16.0006 14.8561 163° South  Level Estimated
07:23PM 15.8796 14.8954 163° South  Level Estimated
07:24PM 15.7558 14.9357 163° South  Level Estimated
07:25PM 15.6319 14.9759 163° South  Level Estimated
07:26PM 15.5081 15.0160 163° South  Level Estimated
07:27PM 15.3842 15.0561 163° South  Level Estimated
07:28PM 15.2603 15.0962 163° South  Level Estimated
07:29PM 15.1365 15.1362 163° South  Level Estimated
07:30PM 15.0126 15.1761 163° South  Level Estimated
07:31PM 14.8887 15.2161 163° South  Level Estimated
07:32PM 14.7648 15.2559 163° South  Level Estimated
07:33PM 14.6409 15.2957 163° South  Level Estimated
07:34PM 14.5170 15.3355 163° South  Level Estimated
07:35PM 14.3931 15.3752 163° South  Level Estimated
07:36PM 14.2691 15.4149 163° South  Level Estimated
07:37PM 14.1452 15.4546 163° South  Level Estimated
07:38PM 14.0213 15.4942 163° South  Level Estimated
07:39PM 13.8973 15.5337 163° South  Level Estimated
07:40PM 13.7734 15.5733 163° South  Level Estimated
07:41PM 13.6494 15.6127 163° South  Level Estimated
07:42PM 13.5255 15.6522 163° South  Level Estimated
07:43PM 13.4015 15.6916 163° South  Level Estimated
07:44PM 13.2775 15.7309 163° South  Level Estimated
07:45PM 13.1536 15.7702 163° South  Level Estimated
07:46PM 13.0296 15.8095 163° South  Level Estimated
07:47PM 12.9056 15.8487 163° South  Level Estimated
07:48PM 12.7816 15.8879 163° South  Level Estimated
07:49PM 12.6576 15.9270 163° South  Level Estimated
07:50PM 12.5336 15.9662 163° South  Level Estimated
07:51PM 12.4096 16.0053 163° South  Level Estimated
07:52PM 12.2855 16.0443 163° South  Level Estimated
07:53PM 12.1615 16.0833 163° South  Level Estimated
07:54PM 12.0375 16.1223 163° South  Level Estimated
07:55PM 11.9134 16.1612 163° South  Level Estimated
07:56PM 11.7894 16.2001 163° South  Level Estimated
07:57PM 11.6653 16.2390 163° South  Level Estimated
07:58PM 11.5413 16.2778 163° South  Level Estimated
07:59PM 11.4172 16.3166 163° South  Level Estimated
08:00PM 11.2932 16.3553 163° South  Level Estimated
08:01PM 11.1691 16.3941 163° South  Level Estimated
08:02PM 11.0450 16.4327 163° South  Level Estimated
08:03PM 10.9210 16.4714 163° South  Level Estimated
08:04PM 10.7969 16.5100 163° South  Level Estimated
08:05PM 10.6728 16.5486 163° South  Level Estimated
08:06PM 10.5487 16.5872 163° South  Level Estimated
08:07PM 10.4246 16.6257 163° South  Level Estimated
08:08PM 10.3005 16.6642 163° South  Level Estimated
08:09PM 10.1764 16.7027 163° South  Level Estimated
08:10PM 10.0523 16.7411 163° South  Level Estimated
08:11PM 9.9282 16.7795 163° South  Level Estimated
08:12PM 9.8041 16.8179 163° South  Level Estimated
08:13PM 9.6799 16.8563 163° South  Level Estimated
08:14PM 9.5558 16.8946 163° South  Level Estimated
08:15PM 9.4317 16.9329 163° South  Level Estimated
08:16PM 9.3075 16.9712 163° South  Level Estimated
08:17PM 9.1834 17.0094 163° South  Level Estimated
08:18PM 9.0592 17.0476 163° South  Level Estimated
08:19PM 8.9351 17.0858 163° South  Level Estimated
08:20PM 8.8110 17.1240 163° South  Level Estimated
08:21PM 8.6868 17.1621 163° South  Level Estimated
08:22PM 8.5626 17.2002 163° South  Level Estimated
08:23PM 8.4385 17.2383 163° South  Level Estimated
08:24PM 8.3143 17.2764 163° South  Level Estimated
08:25PM 8.1901 17.3144 163° South  Level Estimated
08:26PM 8.0660 17.3524 163° South  Level Estimated
08:27PM 7.9418 17.3904 163° South  Level Estimated
08:28PM 7.8176 17.4284 163° South  Level Estimated
08:29PM 7.6934 17.4663 163° South  Level Estimated
08:30PM 7.5692 17.5043 163° South  Level Estimated
08:31PM 7.4450 17.5422 163° South  Level Estimated
08:32PM 7.3208 17.5800 163° South  Level Estimated
08:33PM 7.1967 17.6179 163° South  Level Estimated
08:34PM 7.0725 17.6557 163° South  Level Estimated
08:35PM 6.9482 17.6936 163° South  Level Estimated
08:36PM 6.8240 17.7314 163° South  Level Estimated
08:37PM 6.6998 17.7691 163° South  Level Estimated
08:38PM 6.5756 17.8069 163° South  Level Estimated
08:39PM 6.4514 17.8446 163° South  Level Estimated
08:40PM 6.3272 17.8824 163° South  Level Estimated
08:41PM 6.2030 17.9201 163° South  Level Estimated
08:42PM 6.0788 17.9578 163° South  Level Estimated
08:43PM 5.9545 17.9954 163° South  Level Estimated
08:44PM 5.8303 18.0331 163° South  Level Estimated
08:45PM 5.7061 18.0707 163° South  Level Estimated
08:46PM 5.5818 18.1083 163° South  Level Estimated
08:47PM 5.4576 18.1459 163° South  Level Estimated
08:48PM 5.3334 18.1835 163° South  Level Estimated
08:49PM 5.2091 18.2211 163° South  Level Estimated
08:50PM 5.0849 18.2586 163° South  Level Estimated
08:51PM 4.9606 18.2962 163° South  Level Estimated
08:52PM 4.8364 18.3337 163° South  Level Estimated
08:53PM 4.7121 18.3712 163° South  Level Estimated
08:54PM 4.5879 18.4087 163° South  Level Estimated
08:55PM 4.4636 18.4462 163° South  Level Estimated
08:56PM 4.3394 18.4837 163° South  Level Estimated
08:57PM 4.2151 18.5212 163° South  Level Estimated
08:58PM 4.0909 18.5586 163° South  Level Estimated
08:59PM 3.9666 18.5961 163° South  Level Estimated
09:00PM 3.8423 18.6335 163° South  Level Estimated
09:01PM 3.7181 18.6709 163° South  Level Estimated
09:02PM 3.5938 18.7083 163° South  Level Estimated
09:03PM 3.4695 18.7457 163° South  Level Estimated
09:04PM 3.3453 18.7831 163° South  Level Estimated
09:05PM 3.2210 18.8205 163° South  Level Estimated
09:06PM 3.0967 18.8579 163° South  Level Estimated
09:07PM 2.9725 18.8952 163° South  Level Estimated
09:08PM 2.8482 18.9326 163° South  Level Estimated
09:09PM 2.7239 18.9699 163° South  Level Estimated
09:10PM 2.5996 19.0072 163° South  Level Estimated
09:11PM 2.4754 19.0446 163° South  Level Estimated
09:12PM 2.3511 19.0819 163° South  Level Estimated
09:13PM 2.2268 19.1192 163° South  Level Estimated
09:14PM 2.1025 19.1565 163° South  Level Estimated
09:15PM 1.9783 19.1938 163° South  Level Estimated
09:16PM 1.8540 19.2311 163° South  Level Estimated
09:17PM 1.7297 19.2684 163° South  Level Estimated
09:18PM 1.6054 19.3057 163° South  Level Estimated
09:19PM 1.4811 19.3430 163° South  Level Estimated
09:20PM 1.3569 19.3803 163° South  Level Estimated
09:21PM 1.2326 19.4175 163° South  Level Estimated
09:22PM 1.1083 19.4548 163° South  Level Estimated
09:23PM 0.9840 19.4921 163° South  Level Estimated
09:24PM 0.8597 19.5293 163° South  Level Estimated
09:25PM 0.7354 19.5666 163° South  Level Estimated
09:26PM 0.6111 19.6039 163° South  Level Estimated
09:27PM 0.4868 19.6411 163° South  Level Estimated
09:28PM 0.3625 19.6784 163° South  Level Estimated
09:29PM 0.2383 19.7156 163° South  Level Estimated
09:30PM 0.1140 19.7529 163° South  Level Estimated
09:31PM -0.0103 19.7902 163° South  Level Estimated
09:32PM -0.1346 19.8274 163° South  Level Estimated
09:33PM -0.2589 19.8647 163° South  Level Estimated
09:34PM -0.3832 19.9019 163° South  Level Estimated
09:35PM -0.5075 19.9392 163° South  Level Estimated
09:36PM -0.6318 19.9765 163° South  Level Estimated
09:37PM -0.7561 20.0137 163° South  Level Estimated
09:38PM -0.8804 20.0510 163° South  Level Estimated
09:39PM -1.0046 20.0882 163° South  Level Estimated
09:40PM -1.1289 20.1255 163° South  Level Estimated
09:41PM -1.2532 20.1628 163° South  Level Estimated
09:42PM -1.3775 20.2001 163° South  Level Estimated
09:43PM -1.5018 20.2373 163° South  Level Estimated
09:44PM -1.6261 20.2746 163° South  Level Estimated
09:45PM -1.7503 20.3119 163° South  Level Estimated
09:46PM -1.8746 20.3492 163° South  Level Estimated
09:47PM -1.9989 20.3865 163° South  Level Estimated
09:48PM -2.1232 20.4238 163° South  Level Estimated
09:49PM -2.2475 20.4611 163° South  Level Estimated
09:50PM -2.3718 20.4984 163° South  Level Estimated
09:51PM -2.4960 20.5357 163° South  Level Estimated
09:52PM -2.6203 20.5731 163° South  Level Estimated
09:53PM -2.7446 20.6104 163° South  Level Estimated
09:54PM -2.8689 20.6478 163° South  Level Estimated
09:55PM -2.9931 20.6851 163° South  Level Estimated
09:56PM -3.1174 20.7225 163° South  Level Estimated
09:57PM -3.2417 20.7598 163° South  Level Estimated
09:58PM -3.3659 20.7972 163° South  Level Estimated
09:59PM -3.4902 20.8346 163° South  Level Estimated
10:00PM -3.6145 20.8720 163° South  Level Estimated
10:01PM -3.7387 20.9094 163° South  Level Estimated
10:02PM -3.8630 20.9468 163° South  Level Estimated
10:03PM -3.9873 20.9843 163° South  Level Estimated
10:04PM -4.1115 21.0217 163° South  Level Estimated
10:05PM -4.2358 21.0592 163° South  Level Estimated
10:06PM -4.3600 21.0966 163° South  Level Estimated
10:07PM -4.4843 21.1341 163° South  Level Estimated
10:08PM -4.6085 21.1716 163° South  Level Estimated
10:09PM -4.7328 21.2091 163° South  Level Estimated
10:10PM -4.8570 21.2466 163° South  Level Estimated
10:11PM -4.9813 21.2841 163° South  Level Estimated
10:12PM -5.1055 21.3217 163° South  Level Estimated
10:13PM -5.2298 21.3593 163° South  Level Estimated
10:14PM -5.3540 21.3968 163° South  Level Estimated
10:15PM -5.4783 21.4344 163° South  Level Estimated
10:16PM -5.6025 21.4720 163° South  Level Estimated
10:17PM -5.7267 21.5096 163° South  Level Estimated
10:18PM -5.8509 21.5473 163° South  Level Estimated
10:19PM -5.9752 21.5849 163° South  Level Estimated
10:20PM -6.0994 21.6226 163° South  Level Estimated
10:21PM -6.2236 21.6603 163° South  Level Estimated
10:22PM -6.3478 21.6980 163° South  Level Estimated
10:23PM -6.4721 21.7357 163° South  Level Estimated
10:24PM -6.5963 21.7735 163° South  Level Estimated
10:25PM -6.7205 21.8112 163° South  Level Estimated
10:26PM -6.8447 21.8490 163° South  Level Estimated
10:27PM -6.9689 21.8868 163° South  Level Estimated
10:28PM -7.0931 21.9246 163° South  Level Estimated
10:29PM -7.2173 21.9625 163° South  Level Estimated
10:30PM -7.3415 22.0003 163° South  Level Estimated
10:31PM -7.4657 22.0382 163° South  Level Estimated
10:32PM -7.5899 22.0761 163° South  Level Estimated
10:33PM -7.7141 22.1141 163° South  Level Estimated
10:34PM -7.8383 22.1520 163° South  Level Estimated
10:35PM -7.9624 22.1900 163° South  Level Estimated
10:36PM -8.0866 22.2280 163° South  Level Estimated
10:37PM -8.2108 22.2660 163° South  Level Estimated
10:38PM -8.3350 22.3040 163° South  Level Estimated
10:39PM -8.4591 22.3421 163° South  Level Estimated
10:40PM -8.5833 22.3802 163° South  Level Estimated
10:41PM -8.7074 22.4183 163° South  Level Estimated
10:42PM -8.8316 22.4565 163° South  Level Estimated
10:43PM -8.9558 22.4946 163° South  Level Estimated
10:44PM -9.0799 22.5328 163° South  Level Estimated
10:45PM -9.2040 22.5710 163° South  Level Estimated
10:46PM -9.3282 22.6093 163° South  Level Estimated
10:47PM -9.4523 22.6476 163° South  Level Estimated
10:48PM -9.5764 22.6859 163° South  Level Estimated
10:49PM -9.7006 22.7242 163° South  Level Estimated
10:50PM -9.8247 22.7626 163° South  Level Estimated
10:51PM -9.9488 22.8009 163° South  Level Estimated
10:52PM -10.0729 22.8394 163° South  Level Estimated
10:53PM -10.1970 22.8778 163° South  Level Estimated
10:54PM -10.3211 22.9163 163° South  Level Estimated
10:55PM -10.4452 22.9548 163° South  Level Estimated
10:56PM -10.5693 22.9933 163° South  Level Estimated
10:57PM -10.6934 23.0319 163° South  Level Estimated
10:58PM -10.8175 23.0705 163° South  Level Estimated
10:59PM -10.9416 23.1091 163° South  Level Estimated
11:00PM -11.0657 23.1478 163° South  Level Estimated
11:01PM -11.1897 23.1865 163° South  Level Estimated
11:02PM -11.3138 23.2252 163° South  Level Estimated
11:03PM -11.4379 23.2640 163° South  Level Estimated
11:04PM -11.5619 23.3028 163° South  Level Estimated
11:05PM -11.6860 23.3416 163° South  Level Estimated
11:06PM -11.8100 23.3805 163° South  Level Estimated
11:07PM -11.9341 23.4194 163° South  Level Estimated
11:08PM -12.0581 23.4583 163° South  Level Estimated
11:09PM -12.1821 23.4973 163° South  Level Estimated
11:10PM -12.3062 23.5363 163° South  Level Estimated
11:11PM -12.4302 23.5754 163° South  Level Estimated
11:12PM -12.5542 23.6144 163° South  Level Estimated
11:13PM -12.6782 23.6536 163° South  Level Estimated
11:14PM -12.8022 23.6927 163° South  Level Estimated
11:15PM -12.9262 23.7319 163° South  Level Estimated
11:16PM -13.0502 23.7712 163° South  Level Estimated
11:17PM -13.1742 23.8104 163° South  Level Estimated
11:18PM -13.2982 23.8498 163° South  Level Estimated
11:19PM -13.4221 23.8891 163° South  Level Estimated
11:20PM -13.5461 23.9285 163° South  Level Estimated
11:21PM -13.6700 23.9680 163° South  Level Estimated
11:22PM -13.7940 24.0074 163° South  Level Estimated
11:23PM -13.9179 24.0470 163° South  Level Estimated
11:24PM -14.0419 24.0865 163° South  Level Estimated
11:25PM -14.1658 24.1261 163° South  Level Estimated
11:26PM -14.2898 24.1658 163° South  Level Estimated
11:27PM -14.4137 24.2055 163° South  Level Estimated
11:28PM -14.5376 24.2452 163° South  Level Estimated
11:29PM -14.6615 24.2850 163° South  Level Estimated
11:30PM -14.7854 24.3248 163° South  Level Estimated
11:31PM -14.9093 24.3647 163° South  Level Estimated
11:32PM -15.0332 24.4046 163° South  Level Estimated
11:33PM -15.1571 24.4446 163° South  Level Estimated
11:34PM -15.2809 24.4846 163° South  Level Estimated
11:35PM -15.4048 24.5247 163° South  Level Estimated
11:36PM -15.5287 24.5648 163° South  Level Estimated
11:37PM -15.6525 24.6049 163° South  Level Estimated
11:38PM -15.7764 24.6451 163° South  Level Estimated
11:39PM -15.9002 24.6854 163° South  Level Estimated
11:40PM -16.0240 24.7257 163° South  Level Estimated
11:41PM -16.1479 24.7660 163° South  Level Estimated
11:42PM -16.2717 24.8064 163° South  Level Estimated
11:43PM -16.3955 24.8469 163° South  Level Estimated
11:44PM -16.5193 24.8874 163° South  Level Estimated
11:45PM -16.6431 24.9279 163° South  Level Estimated
11:46PM -16.7668 24.9685 163° South  Level Estimated
11:47PM -16.8906 25.0092 163° South  Level Estimated
11:48PM -17.0144 25.0499 163° South  Level Estimated
11:49PM -17.1381 25.0907 163° South  Level Estimated
11:50PM -17.2619 25.1315 163° South  Level Estimated
11:51PM -17.3856 25.1724 163° South  Level Estimated
11:52PM -17.5094 25.2134 162° South  Level Estimated
11:53PM -17.6331 25.2543 162° South  Level Estimated
11:54PM -17.7568 25.2954 162° South  Level Estimated
11:55PM -17.8805 25.3365 162° South  Level Estimated
11:56PM -18.0042 25.3776 162° South  Level Estimated
11:57PM -18.1279 25.4189 162° South  Level Estimated
11:58PM -18.2516 25.4601 162° South  Level Estimated
11:59PM -18.3753 25.5015 162° South  Level Estimated
12:00AM -18.4989 25.5429 162° South  Level Estimated
12:01AM -18.6226 25.5844 162° South  Level Estimated
12:02AM -18.7463 25.6259 162° South  Level Estimated
12:03AM -18.8699 25.6674 162° South  Level Estimated
12:04AM -18.9935 25.7091 162° South  Level Estimated
12:05AM -19.1171 25.7508 162° South  Level Estimated
12:06AM -19.2407 25.7925 162° South  Level Estimated
12:07AM -19.3643 25.8344 162° South  Level Estimated
12:08AM -19.4879 25.8763 162° South  Level Estimated
12:09AM -19.6115 25.9182 162° South  Level Estimated
12:10AM -19.7351 25.9602 162° South  Level Estimated
12:11AM -19.8587 26.0023 162° South  Level Estimated
12:12AM -19.9822 26.0445 162° South  Level Estimated
12:13AM -20.1057 26.0867 162° South  Level Estimated
12:14AM -20.2293 26.1290 162° South  Level Estimated
12:15AM -20.3528 26.1713 162° South  Level Estimated
12:16AM -20.4763 26.2137 162° South  Level Estimated
12:17AM -20.5998 26.2562 162° South  Level Estimated
12:18AM -20.7233 26.2988 162° South  Level Estimated
12:19AM -20.8468 26.3414 162° South  Level Estimated
12:20AM -20.9702 26.3841 162° South  Level Estimated
12:21AM -21.0937 26.4268 162° South  Level Estimated
12:22AM -21.2171 26.4697 162° South  Level Estimated
12:23AM -21.3406 26.5126 162° South  Level Estimated
12:24AM -21.4640 26.5555 162° South  Level Estimated
12:25AM -21.5874 26.5986 162° South  Level Estimated
12:26AM -21.7108 26.6417 162° South  Level Estimated
12:27AM -21.8342 26.6849 162° South  Level Estimated
12:28AM -21.9576 26.7282 162° South  Level Estimated
12:29AM -22.0810 26.7715 162° South  Level Estimated
12:30AM -22.2043 26.8150 162° South  Level Estimated
12:31AM -22.3277 26.8585 162° South  Level Estimated
12:32AM -22.4510 26.9020 162° South  Level Estimated
12:33AM -22.5744 26.9457 162° South  Level Estimated
12:34AM -22.6977 26.9894 162° South  Level Estimated
12:35AM -22.8210 27.0332 162° South  Level Estimated
12:36AM -22.9443 27.0771 162° South  Level Estimated
12:37AM -23.0675 27.1211 162° South  Level Estimated
12:38AM -23.1908 27.1651 162° South  Level Estimated
12:39AM -23.3141 27.2093 162° South  Level Estimated
12:40AM -23.4373 27.2535 162° South  Level Estimated
12:41AM -23.5605 27.2978 162° South  Level Estimated
12:42AM -23.6837 27.3422 162° South  Level Estimated
12:43AM -23.8069 27.3867 162° South  Level Estimated
12:44AM -23.9301 27.4312 162° South  Level Estimated
12:44AM -25.1190 26.6010 162° South 517 595 33,100  Level FlightAware
12:45AM -24.0533 27.4758 162° South  Level Estimated
12:45AM -25.1900 26.6980 129° Southeast 519 597 31,200  Level FlightAware
12:46AM -25.2570 26.7890 129° Southeast 526 605 29,900 -1,920 Descending FlightAware
12:46AM -25.3210 26.8760 129° Southeast 517 595 28,500 -2,100 Descending FlightAware
12:47AM -25.3790 26.9570 128° Southeast 506 582 27,100 -1,980 Descending FlightAware
12:48AM -25.4440 27.0470 129° Southeast 497 572 25,700 -1,980 Descending FlightAware
12:48AM -25.5010 27.1280 128° Southeast 494 568 24,300 -2,040 Descending FlightAware
12:49AM -25.5570 27.2100 127° Southeast 487 560 23,000 -1,920 Descending FlightAware
12:50AM -25.6170 27.2960 128° Southeast 478 550 21,600 -1,440 Descending FlightAware
12:50AM -25.6710 27.3740 128° Southeast 447 514 21,000 -1,020 Descending FlightAware
12:51AM -25.7220 27.4480 127° Southeast 420 483 20,200 -1,080 Descending FlightAware
12:52AM -25.7650 27.5240 122° Southeast 401 461 19,500 -1,140 Descending FlightAware
12:52AM -25.8030 27.5920 122° Southeast 383 441 18,700 -1,200 Descending FlightAware
12:53AM -25.8430 27.6630 122° Southeast 369 425 17,800 -1,380 Descending FlightAware
12:54AM -25.8810 27.7310 122° Southeast 365 420 16,800 -1,440 Descending FlightAware
12:55AM -25.9200 27.8010 122° Southeast 355 409 15,800 -1,320 Descending FlightAware
12:55AM -25.9530 27.8610 121° Southeast 346 398 15,000 -1,380 Descending FlightAware
12:56AM -25.9900 27.9290 121° Southeast 341 392 13,900 -1,440 Descending FlightAware
12:57AM -26.0230 27.9880 122° Southeast 334 384 13,000 -1,320 Descending FlightAware
12:57AM -26.0490 28.0500 115° Southeast 318 366 12,200 -1,080 Descending FlightAware
12:58AM -26.0350 28.0940 71° East 301 346 11,800 -900 Descending FlightAware
12:59AM -25.9970 28.1350 44° Northeast 276 318 11,200 -1,320 Descending FlightAware
12:59AM -25.9610 28.1780 47° Northeast 265 305 10,000 -1,500 Descending FlightAware
01:00AM -25.9390 28.2040 47° Northeast 259 298 9,500 -1,200 Descending FlightAware
01:00AM -25.9200 28.2390 59° Northeast 264 304 8,900 -840 Descending FlightAware
01:01AM -25.9290 28.2730 106° East 249 287 8,700 -480 Descending FlightAware
01:01AM -25.9480 28.2990 129° Southeast 238 274 8,500 -300 Descending FlightAware
01:02AM -25.9910 28.3140 163° South 232 267 8,400 -660 Descending FlightAware
01:02AM -25.9970 28.3000 245° Southwest 221 254 7,900 -1,500 Descending FlightAware
01:03AM -26.0270 28.2910 195° South 214 246 7,400 -1,140 Descending FlightAware
01:03AM -26.0510 28.2830 197° South 204 235 6,900 -1,140 Descending FlightAware
01:03AM -26.0730 28.2760 196° South 183 211 6,400 -1,020 Descending FlightAware
01:04AM -26.0940 28.2700 194° South 168 193 6,000 -900 Descending FlightAware
01:04AM -26.1170 28.2630 195° South 149 171 5,600 -720 Descending FlightAware
01:05AM -26.1340 28.2580 195° South 150 173 5,300 -600 Descending FlightAware